createdAt,value
2023-05-21T00:00:45.273Z,100569.84
2023-05-21T00:02:06.264Z,100569.03
2023-05-21T00:05:37.990Z,100564.41
2023-05-21T00:07:22.497Z,100561.84
2023-05-21T00:08:50.558Z,100561.72
2023-05-21T00:10:11.774Z,100564.84
2023-05-21T00:11:35.171Z,100569.00
2023-05-21T00:12:57.223Z,100568.16
2023-05-21T00:14:18.492Z,100565.44
2023-05-21T00:15:40.863Z,100563.97
2023-05-21T00:17:01.797Z,100558.31
2023-05-21T00:19:10.712Z,100557.47
2023-05-21T00:20:33.670Z,100556.84
2023-05-21T00:22:16.129Z,100566.25
2023-05-21T00:23:43.398Z,100562.72
2023-05-21T00:25:15.239Z,100567.50
2023-05-21T00:26:36.609Z,100564.78
2023-05-21T00:28:02.557Z,100561.25
2023-05-21T00:29:30.527Z,100556.59
2023-05-21T00:30:52.797Z,100544.09
2023-05-21T00:32:35.288Z,100554.94
2023-05-21T00:33:57.832Z,100556.19
2023-05-21T00:35:34.245Z,100558.50
2023-05-21T00:37:17.211Z,100555.72
2023-05-21T00:38:39.944Z,100558.06
2023-05-21T00:40:05.266Z,100567.88
2023-05-21T00:41:32.134Z,100551.56
2023-05-21T00:43:00.478Z,100555.31
2023-05-21T00:44:34.414Z,100556.31
2023-05-21T00:45:59.411Z,100556.53
2023-05-21T00:47:25.119Z,100565.31
2023-05-21T00:48:47.464Z,100565.69
2023-05-21T00:50:11.027Z,100568.63
2023-05-21T00:51:33.690Z,100567.56
2023-05-21T00:53:19.579Z,100562.97
2023-05-21T00:54:56.145Z,100559.63
2023-05-21T00:56:21.684Z,100556.72
2023-05-21T00:57:46.203Z,100562.31
2023-05-21T00:59:11.411Z,100562.31
2023-05-21T01:00:35.481Z,100564.84
2023-05-21T01:02:04.333Z,100561.69
2023-05-21T01:03:27.295Z,100560.66
2023-05-21T01:04:48.510Z,100558.53
2023-05-21T01:06:23.492Z,100564.78
2023-05-21T01:07:46.799Z,100556.19
2023-05-21T01:09:15.826Z,100551.66
2023-05-21T01:10:38.446Z,100561.44
2023-05-21T01:12:01.142Z,100556.19
2023-05-21T01:13:24.260Z,100557.25
2023-05-21T01:14:47.066Z,100556.41
2023-05-21T01:16:09.117Z,100552.03
2023-05-21T01:17:32.192Z,100546.81
2023-05-21T01:18:57.069Z,100546.00
2023-05-21T01:20:30.788Z,100544.69
2023-05-21T01:22:03.193Z,100551.59
2023-05-21T01:23:26.972Z,100538.19
2023-05-21T01:24:51.773Z,100545.75
2023-05-21T01:26:14.139Z,100541.53
2023-05-21T01:27:37.525Z,100539.47
2023-05-21T01:28:59.281Z,100542.41
2023-05-21T01:30:41.122Z,100538.38
2023-05-21T01:32:10.975Z,100536.47
2023-05-21T01:33:41.302Z,100535.84
2023-05-21T01:35:09.235Z,100538.38
2023-05-21T01:36:41.267Z,100535.00
2023-05-21T01:38:09.016Z,100532.31
2023-05-21T01:39:41.931Z,100531.03
2023-05-21T01:41:08.663Z,100529.56
2023-05-21T01:42:34.942Z,100530.41
2023-05-21T01:43:58.874Z,100528.69
2023-05-21T01:45:24.348Z,100543.09
2023-05-21T01:46:46.501Z,100529.09
2023-05-21T01:48:09.436Z,100537.88
2023-05-21T01:49:32.297Z,100538.88
2023-05-21T01:50:55.494Z,100528.03
2023-05-21T01:52:22.434Z,100539.09
2023-05-21T01:53:44.543Z,100533.22
2023-05-21T01:55:08.524Z,100549.03
2023-05-21T01:56:54.223Z,100533.63
2023-05-21T01:58:17.262Z,100535.25
2023-05-21T01:59:39.055Z,100534.84
2023-05-21T02:01:13.665Z,100534.03
2023-05-21T02:02:50.564Z,100536.91
2023-05-21T02:04:15.668Z,100533.78
2023-05-21T02:05:57.668Z,100540.63
2023-05-21T02:07:20.022Z,100539.78
2023-05-21T02:08:49.998Z,100542.25
2023-05-21T02:10:20.350Z,100537.88
2023-05-21T02:11:41.840Z,100532.47
2023-05-21T02:13:04.072Z,100537.88
2023-05-21T02:14:25.619Z,100524.69
2023-05-21T02:16:06.137Z,100528.84
2023-05-21T02:17:31.538Z,100527.81
2023-05-21T02:18:57.613Z,100531.34
2023-05-21T02:20:19.583Z,100523.03
2023-05-21T02:21:41.820Z,100526.78
2023-05-21T02:23:04.135Z,100529.50
2023-05-21T02:24:25.301Z,100523.22
2023-05-21T02:25:52.462Z,100525.09
2023-05-21T02:27:23.925Z,100521.75
2023-05-21T02:28:46.360Z,100531.16
2023-05-21T02:30:10.915Z,100540.31
2023-05-21T02:31:55.136Z,100516.28
2023-05-21T02:33:42.201Z,100533.88
2023-05-21T02:35:06.109Z,100524.25
2023-05-21T02:36:28.971Z,100520.91
2023-05-21T02:37:51.361Z,100524.25
2023-05-21T02:39:13.476Z,100530.50
2023-05-21T02:40:36.072Z,100522.56
2023-05-21T02:41:59.904Z,100518.22
2023-05-21T02:43:20.960Z,100520.72
2023-05-21T02:44:43.247Z,100516.16
2023-05-21T02:46:09.775Z,100520.72
2023-05-21T02:47:35.785Z,100516.31
2023-05-21T02:49:04.570Z,100513.19
2023-05-21T02:50:36.270Z,100508.59
2023-05-21T02:51:58.746Z,100516.31
2023-05-21T02:53:21.353Z,100511.97
2023-05-21T02:54:42.903Z,100513.44
2023-05-21T02:56:05.728Z,100511.75
2023-05-21T02:57:29.360Z,100514.44
2023-05-21T02:58:52.105Z,100509.03
2023-05-21T03:00:16.177Z,100505.50
2023-05-21T03:01:39.063Z,100508.03
2023-05-21T03:03:01.891Z,100503.84
2023-05-21T03:05:13.264Z,100511.75
2023-05-21T03:06:38.916Z,100504.84
2023-05-21T03:08:32.087Z,100516.31
2023-05-21T03:09:53.124Z,100508.22
2023-05-21T03:11:27.225Z,100506.31
2023-05-21T03:12:51.249Z,100505.97
2023-05-21T03:14:16.170Z,100505.97
2023-05-21T03:15:56.754Z,100507.63
2023-05-21T03:17:19.245Z,100507.63
2023-05-21T03:18:50.951Z,100501.56
2023-05-21T03:20:17.281Z,100507.63
2023-05-21T03:21:38.998Z,100510.41
2023-05-21T03:23:04.512Z,100505.81
2023-05-21T03:24:26.436Z,100503.75
2023-05-21T03:25:51.082Z,100508.94
2023-05-21T03:27:12.078Z,100509.59
2023-05-21T03:28:45.729Z,100503.16
2023-05-21T03:30:08.050Z,100503.41
2023-05-21T03:31:39.118Z,100502.38
2023-05-21T03:33:03.739Z,100492.81
2023-05-21T03:34:29.242Z,100507.00
2023-05-21T03:35:51.772Z,100503.91
2023-05-21T03:37:14.544Z,100499.97
2023-05-21T03:38:37.204Z,100506.00
2023-05-21T03:40:12.062Z,100497.66
2023-05-21T03:41:34.366Z,100500.63
2023-05-21T03:43:04.472Z,100494.84
2023-05-21T03:44:27.043Z,100501.75
2023-05-21T03:45:56.908Z,100503.22
2023-05-21T03:47:50.087Z,100497.41
2023-05-21T03:49:12.944Z,100503.47
2023-05-21T03:50:35.842Z,100512.84
2023-05-21T03:52:34.364Z,100502.88
2023-05-21T03:53:56.057Z,100507.66
2023-05-21T03:55:21.670Z,100506.66
2023-05-21T03:56:59.969Z,100492.47
2023-05-21T03:58:22.444Z,100508.16
2023-05-21T03:59:46.104Z,100509.41
2023-05-21T04:01:13.505Z,100513.19
2023-05-21T04:02:36.551Z,100511.53
2023-05-21T04:03:58.025Z,100508.63
2023-05-21T04:05:22.180Z,100506.56
2023-05-21T04:06:43.999Z,100499.44
2023-05-21T04:08:07.470Z,100514.50
2023-05-21T04:09:29.833Z,100509.50
2023-05-21T04:11:01.392Z,100504.72
2023-05-21T04:12:24.227Z,100494.53
2023-05-21T04:13:45.293Z,100512.91
2023-05-21T04:15:10.263Z,100513.34
2023-05-21T04:16:31.384Z,100503.78
2023-05-21T04:17:55.472Z,100515.47
2023-05-21T04:19:18.605Z,100504.00
2023-05-21T04:20:45.960Z,100506.09
2023-05-21T04:23:07.913Z,100501.13
2023-05-21T04:24:30.513Z,100517.25
2023-05-21T04:26:12.891Z,100504.50
2023-05-21T04:27:36.482Z,100517.91
2023-05-21T04:29:03.092Z,100510.59
2023-05-21T04:30:29.424Z,100505.59
2023-05-21T04:31:52.923Z,100508.28
2023-05-21T04:33:18.552Z,100516.88
2023-05-21T04:34:41.009Z,100513.72
2023-05-21T04:36:12.378Z,100511.44
2023-05-21T04:37:35.312Z,100509.13
2023-05-21T04:38:57.918Z,100509.94
2023-05-21T04:40:24.678Z,100509.09
2023-05-21T04:41:47.009Z,100515.13
2023-05-21T04:43:11.686Z,100517.59
2023-05-21T04:44:36.387Z,100508.31
2023-05-21T04:46:16.833Z,100502.00
2023-05-21T04:47:39.524Z,100514.88
2023-05-21T04:50:17.610Z,100498.94
2023-05-21T04:51:41.735Z,100509.25
2023-05-21T04:53:17.599Z,100504.53
2023-05-21T04:54:55.379Z,100502.03
2023-05-21T04:56:29.641Z,100508.69
2023-05-21T04:57:51.425Z,100505.59
2023-05-21T04:59:13.634Z,100506.25
2023-05-21T05:00:38.068Z,100509.97
2023-05-21T05:02:03.669Z,100504.25
2023-05-21T05:03:29.039Z,100509.84
2023-05-21T05:04:51.996Z,100512.28
2023-05-21T05:06:15.679Z,100512.84
2023-05-21T05:08:04.410Z,100506.56
2023-05-21T05:09:38.334Z,100505.66
2023-05-21T05:11:03.947Z,100517.88
2023-05-21T05:14:36.921Z,100516.19
2023-05-21T05:16:00.660Z,100512.78
2023-05-21T05:17:24.764Z,100515.94
2023-05-21T05:18:47.061Z,100515.72
2023-05-21T05:20:10.488Z,100524.31
2023-05-21T05:21:35.668Z,100508.16
2023-05-21T05:22:57.920Z,100516.72
2023-05-21T05:24:19.914Z,100512.28
2023-05-21T05:25:42.578Z,100510.66
2023-05-21T05:27:05.615Z,100501.47
2023-05-21T05:28:28.608Z,100512.47
2023-05-21T05:30:17.123Z,100504.09
2023-05-21T05:31:45.637Z,100501.59
2023-05-21T05:35:58.940Z,100513.50
2023-05-21T05:37:28.992Z,100504.91
2023-05-21T05:39:17.703Z,100508.66
2023-05-21T05:40:41.870Z,100502.75
2023-05-21T05:45:25.367Z,100509.09
2023-05-21T05:46:48.479Z,100499.78
2023-05-21T05:48:10.052Z,100498.19
2023-05-21T05:49:32.181Z,100507.31
2023-05-21T05:50:57.183Z,100505.19
2023-05-21T05:52:28.475Z,100505.19
2023-05-21T05:53:51.148Z,100494.47
2023-05-21T05:55:12.290Z,100501.13
2023-05-21T05:56:45.401Z,100505.25
2023-05-21T05:58:10.465Z,100496.16
2023-05-21T06:01:34.528Z,100509.97
2023-05-21T06:03:22.655Z,100493.41
2023-05-21T06:07:02.027Z,100501.59
2023-05-21T06:08:24.799Z,100499.03
2023-05-21T06:10:23.070Z,100501.19
2023-05-21T06:11:47.622Z,100481.78
2023-05-21T06:13:28.537Z,100483.66
2023-05-21T06:14:51.740Z,100496.75
2023-05-21T06:18:12.693Z,100483.84
2023-05-21T06:20:13.487Z,100483.16
2023-05-21T06:21:37.799Z,100485.13
2023-05-21T06:23:01.181Z,100499.91
2023-05-21T06:24:35.871Z,100487.34
2023-05-21T06:26:16.560Z,100485.59
2023-05-21T06:27:42.180Z,100483.53
2023-05-21T06:29:25.302Z,100489.19
2023-05-21T06:30:51.738Z,100483.38
2023-05-21T06:32:21.004Z,100492.56
2023-05-21T06:33:43.861Z,100485.88
2023-05-21T06:35:07.535Z,100485.38
2023-05-21T06:36:30.314Z,100483.06
2023-05-21T06:39:07.359Z,100492.38
2023-05-21T06:40:37.255Z,100490.84
2023-05-21T06:42:33.615Z,100495.50
2023-05-21T06:44:15.907Z,100489.47
2023-05-21T06:45:55.749Z,100496.22
2023-05-21T06:47:53.702Z,100492.63
2023-05-21T06:49:32.025Z,100486.75
2023-05-21T06:50:55.568Z,100503.03
2023-05-21T06:52:23.718Z,100505.34
2023-05-21T06:53:45.733Z,100493.03
2023-05-21T06:55:18.756Z,100485.75
2023-05-21T06:57:01.810Z,100507.00
2023-05-21T06:58:34.950Z,100501.63
2023-05-21T07:00:05.262Z,100501.28
2023-05-21T07:01:38.550Z,100492.72
2023-05-21T07:03:07.831Z,100495.03
2023-05-21T07:04:37.114Z,100483.28
2023-05-21T07:06:06.700Z,100480.72
2023-05-21T07:07:46.268Z,100494.63
2023-05-21T07:09:14.525Z,100491.94
2023-05-21T07:10:59.382Z,100492.63
2023-05-21T07:12:37.829Z,100494.72
2023-05-21T07:14:05.431Z,100477.72
2023-05-21T07:15:31.190Z,100476.13
2023-05-21T07:16:53.949Z,100489.19
2023-05-21T07:18:18.051Z,100489.00
2023-05-21T07:19:40.691Z,100486.63
2023-05-21T07:21:02.892Z,100473.53
2023-05-21T07:22:56.221Z,100487.78
2023-05-21T07:24:18.704Z,100488.28
2023-05-21T07:26:01.864Z,100484.28
2023-05-21T07:27:39.289Z,100486.53
2023-05-21T07:29:00.527Z,100490.31
2023-05-21T07:30:26.148Z,100495.25
2023-05-21T07:31:50.626Z,100494.06
2023-05-21T07:35:54.065Z,100495.25
2023-05-21T07:37:18.734Z,100483.44
2023-05-21T07:38:42.224Z,100498.19
2023-05-21T07:40:07.854Z,100495.38
2023-05-21T07:41:36.225Z,100498.63
2023-05-21T07:43:03.682Z,100495.00
2023-05-21T07:45:05.844Z,100498.31
2023-05-21T07:47:54.436Z,100484.69
2023-05-21T07:49:18.980Z,100488.94
2023-05-21T07:50:47.238Z,100494.03
2023-05-21T07:52:11.281Z,100502.28
2023-05-21T07:53:36.627Z,100478.03
2023-05-21T07:55:06.458Z,100492.25
2023-05-21T07:56:34.614Z,100491.69
2023-05-21T07:57:57.542Z,100476.41
2023-05-21T07:59:25.243Z,100497.47
2023-05-21T08:01:47.463Z,100492.00
2023-05-21T08:03:45.917Z,100497.06
2023-05-21T08:05:37.525Z,100486.09
2023-05-21T08:07:00.262Z,100482.53
2023-05-21T08:08:41.913Z,100491.50
2023-05-21T08:10:40.329Z,100488.66
2023-05-21T08:12:04.245Z,100481.91
2023-05-21T08:13:26.647Z,100488.91
2023-05-21T08:14:51.945Z,100491.31
2023-05-21T08:16:17.953Z,100490.69
2023-05-21T08:17:41.232Z,100482.22
2023-05-21T08:19:03.691Z,100490.88
2023-05-21T08:20:26.468Z,100484.69
2023-05-21T08:21:52.746Z,100482.25
2023-05-21T08:23:16.667Z,100485.97
2023-05-21T08:24:44.298Z,100487.34
2023-05-21T08:26:09.783Z,100486.75
2023-05-21T08:27:33.899Z,100491.84
2023-05-21T08:28:55.178Z,100488.66
2023-05-21T08:30:22.043Z,100495.72
2023-05-21T08:31:55.659Z,100487.16
2023-05-21T08:33:33.334Z,100483.34
2023-05-21T08:35:05.551Z,100477.91
2023-05-21T08:36:56.448Z,100469.84
2023-05-21T08:38:47.095Z,100467.34
2023-05-21T08:40:19.891Z,100465.78
2023-05-21T08:41:50.012Z,100471.28
2023-05-21T08:43:20.489Z,100482.81
2023-05-21T08:45:15.748Z,100469.16
2023-05-21T08:46:50.910Z,100462.59
2023-05-21T08:48:13.339Z,100462.94
2023-05-21T08:49:37.502Z,100460.56
2023-05-21T08:51:04.066Z,100459.75
2023-05-21T08:52:29.650Z,100454.72
2023-05-21T08:53:52.748Z,100457.63
2023-05-21T08:55:52.642Z,100467.41
2023-05-21T08:57:20.383Z,100455.22
2023-05-21T08:58:44.093Z,100457.03
2023-05-21T09:00:11.516Z,100457.22
2023-05-21T09:01:42.442Z,100446.72
2023-05-21T09:03:17.287Z,100451.81
2023-05-21T09:04:41.058Z,100449.94
2023-05-21T09:06:03.769Z,100457.78
2023-05-21T09:07:29.284Z,100457.16
2023-05-21T09:09:13.654Z,100454.56
2023-05-21T09:10:42.980Z,100454.28
2023-05-21T09:12:05.717Z,100449.97
2023-05-21T09:13:37.524Z,100457.66
2023-05-21T09:15:06.360Z,100449.75
2023-05-21T09:16:34.475Z,100443.38
2023-05-21T09:17:58.938Z,100439.75
2023-05-21T09:19:33.448Z,100435.38
2023-05-21T09:20:57.539Z,100438.59
2023-05-21T09:22:27.245Z,100436.81
2023-05-21T09:23:55.900Z,100414.72
2023-05-21T09:25:24.984Z,100432.38
2023-05-21T09:26:47.607Z,100436.66
2023-05-21T09:28:15.979Z,100418.44
2023-05-21T09:29:41.017Z,100421.41
2023-05-21T09:31:05.299Z,100414.75
2023-05-21T09:32:27.595Z,100413.78
2023-05-21T09:33:51.763Z,100415.25
2023-05-21T09:35:16.691Z,100416.16
2023-05-21T09:36:39.807Z,100401.53
2023-05-21T09:38:02.329Z,100407.94
2023-05-21T09:39:31.152Z,100408.66
2023-05-21T09:41:05.879Z,100417.31
2023-05-21T09:42:31.794Z,100405.94
2023-05-21T09:44:19.220Z,100402.00
2023-05-21T09:45:53.712Z,100404.94
2023-05-21T09:47:25.349Z,100408.91
2023-05-21T09:48:52.706Z,100395.81
2023-05-21T09:51:06.813Z,100402.13
2023-05-21T09:53:05.275Z,100388.94
2023-05-21T09:54:34.100Z,100388.13
2023-05-21T09:55:59.765Z,100389.47
2023-05-21T09:57:26.540Z,100398.94
2023-05-21T09:58:55.039Z,100396.00
2023-05-21T10:00:24.900Z,100393.53
2023-05-21T10:01:57.420Z,100388.78
2023-05-21T10:03:24.770Z,100382.50
2023-05-21T10:04:54.446Z,100387.56
2023-05-21T10:06:19.086Z,100389.25
2023-05-21T10:07:44.190Z,100379.97
2023-05-21T10:09:11.158Z,100381.19
2023-05-21T10:10:36.668Z,100383.31
2023-05-21T10:12:00.657Z,100385.16
2023-05-21T10:13:23.900Z,100377.16
2023-05-21T10:14:52.420Z,100379.56
2023-05-21T10:16:15.893Z,100372.00
2023-05-21T10:17:39.691Z,100365.91
2023-05-21T10:19:01.320Z,100374.38
2023-05-21T10:20:44.712Z,100386.59
2023-05-21T10:22:08.290Z,100363.66
2023-05-21T10:23:31.506Z,100357.59
2023-05-21T10:25:00.962Z,100372.81
2023-05-21T10:26:28.895Z,100360.78
2023-05-21T10:27:50.230Z,100361.91
2023-05-21T10:29:13.991Z,100357.63
2023-05-21T10:30:38.860Z,100367.50
2023-05-21T10:32:02.669Z,100344.78
2023-05-21T10:33:27.636Z,100353.84
2023-05-21T10:34:50.978Z,100361.72
2023-05-21T10:36:18.029Z,100358.81
2023-05-21T10:37:40.483Z,100343.03
2023-05-21T10:39:11.615Z,100354.19
2023-05-21T10:40:39.129Z,100353.00
2023-05-21T10:42:14.089Z,100359.16
2023-05-21T10:43:44.536Z,100346.56
2023-05-21T10:45:17.447Z,100339.88
2023-05-21T10:47:03.848Z,100335.06
2023-05-21T10:48:44.239Z,100326.03
2023-05-21T10:50:26.101Z,100324.09
2023-05-21T10:52:03.167Z,100317.53
2023-05-21T10:53:33.798Z,100305.69
2023-05-21T10:55:12.936Z,100305.75
2023-05-21T10:56:46.489Z,100298.81
2023-05-21T10:58:32.679Z,100292.91
2023-05-21T10:59:55.573Z,100296.63
2023-05-21T11:01:19.520Z,100291.38
2023-05-21T11:02:42.363Z,100286.78
2023-05-21T11:04:06.076Z,100300.25
2023-05-21T11:05:56.102Z,100302.81
2023-05-21T11:07:25.594Z,100292.00
2023-05-21T11:08:48.608Z,100296.94
2023-05-21T11:10:33.429Z,100303.91
2023-05-21T11:11:59.425Z,100305.72
2023-05-21T11:13:22.010Z,100298.06
2023-05-21T11:14:58.410Z,100304.66
2023-05-21T11:16:22.293Z,100296.13
2023-05-21T11:17:44.845Z,100299.34
2023-05-21T11:19:07.014Z,100309.16
2023-05-21T11:20:36.035Z,100309.59
2023-05-21T11:21:57.382Z,100304.66
2023-05-21T11:23:22.566Z,100294.44
2023-05-21T11:24:44.688Z,100294.66
2023-05-21T11:26:07.339Z,100306.56
2023-05-21T11:27:34.920Z,100306.28
2023-05-21T11:29:08.054Z,100294.00
2023-05-21T11:30:30.533Z,100303.53
2023-05-21T11:32:02.867Z,100298.56
2023-05-21T11:33:25.113Z,100312.44
2023-05-21T11:34:48.346Z,100302.81
2023-05-21T11:36:13.072Z,100294.00
2023-05-21T11:37:37.306Z,100303.78
2023-05-21T11:39:11.943Z,100296.09
2023-05-21T11:40:34.800Z,100313.41
2023-05-21T11:41:59.815Z,100285.63
2023-05-21T11:43:23.225Z,100291.31
2023-05-21T11:44:46.072Z,100284.19
2023-05-21T11:46:08.796Z,100296.88
2023-05-21T11:47:30.414Z,100289.28
2023-05-21T11:48:56.978Z,100285.09
2023-05-21T11:50:19.861Z,100284.53
2023-05-21T11:51:41.181Z,100305.06
2023-05-21T11:53:03.989Z,100294.22
2023-05-21T11:54:27.347Z,100290.00
2023-05-21T11:55:50.817Z,100295.31
2023-05-21T11:57:12.622Z,100292.22
2023-05-21T11:58:34.641Z,100294.72
2023-05-21T11:59:58.638Z,100297.03
2023-05-21T12:01:24.182Z,100279.69
2023-05-21T12:02:47.935Z,100285.31
2023-05-21T12:04:11.144Z,100293.03
2023-05-21T12:05:45.347Z,100282.16
2023-05-21T12:07:22.706Z,100284.09
2023-05-21T12:08:58.724Z,100292.28
2023-05-21T12:10:26.231Z,100284.56
2023-05-21T12:11:47.861Z,100287.16
2023-05-21T12:13:10.129Z,100289.66
2023-05-21T12:14:34.641Z,100283.50
2023-05-21T12:15:57.150Z,100286.19
2023-05-21T12:17:19.532Z,100287.59
2023-05-21T12:18:43.450Z,100294.59
2023-05-21T12:20:08.550Z,100290.25
2023-05-21T12:21:30.057Z,100289.75
2023-05-21T12:22:52.241Z,100283.16
2023-05-21T12:24:13.636Z,100281.28
2023-05-21T12:25:37.258Z,100279.66
2023-05-21T12:26:59.742Z,100278.31
2023-05-21T12:28:24.812Z,100281.09
2023-05-21T12:29:51.779Z,100282.19
2023-05-21T12:31:16.900Z,100280.34
2023-05-21T12:32:44.390Z,100288.06
2023-05-21T12:34:05.882Z,100288.88
2023-05-21T12:35:28.050Z,100284.53
2023-05-21T12:36:53.288Z,100288.66
2023-05-21T12:38:18.001Z,100285.69
2023-05-21T12:39:40.701Z,100276.63
2023-05-21T12:41:07.929Z,100290.50
2023-05-21T12:42:31.278Z,100280.31
2023-05-21T12:43:53.502Z,100288.63
2023-05-21T12:45:18.920Z,100279.03
2023-05-21T12:46:42.219Z,100284.84
2023-05-21T12:48:05.284Z,100288.75
2023-05-21T12:49:38.536Z,100288.31
2023-05-21T12:51:00.020Z,100285.84
2023-05-21T12:52:22.096Z,100291.16
2023-05-21T12:53:44.594Z,100289.81
2023-05-21T12:55:10.618Z,100287.34
2023-05-21T12:56:48.730Z,100277.53
2023-05-21T12:58:15.521Z,100285.78
2023-05-21T12:59:51.564Z,100273.94
2023-05-21T13:01:14.094Z,100282.25
2023-05-21T13:02:40.176Z,100267.88
2023-05-21T13:04:02.423Z,100277.59
2023-05-21T13:05:27.994Z,100286.22
2023-05-21T13:06:49.258Z,100280.97
2023-05-21T13:08:14.296Z,100268.88
2023-05-21T13:09:35.418Z,100282.41
2023-05-21T13:10:57.891Z,100277.69
2023-05-21T13:12:22.166Z,100275.75
2023-05-21T13:13:45.531Z,100274.09
2023-05-21T13:15:10.319Z,100274.91
2023-05-21T13:16:31.222Z,100276.56
2023-05-21T13:17:55.243Z,100282.94
2023-05-21T13:19:18.824Z,100277.09
2023-05-21T13:20:40.876Z,100277.59
2023-05-21T13:22:04.584Z,100283.69
2023-05-21T13:23:26.594Z,100273.41
2023-05-21T13:24:51.537Z,100262.03
2023-05-21T13:26:19.930Z,100274.19
2023-05-21T13:27:44.192Z,100277.16
2023-05-21T13:29:05.349Z,100265.56
2023-05-21T13:30:27.575Z,100268.47
2023-05-21T13:31:49.772Z,100272.88
2023-05-21T13:33:12.114Z,100268.09
2023-05-21T13:34:33.524Z,100266.88
2023-05-21T13:35:58.397Z,100271.53
2023-05-21T13:37:22.676Z,100268.19
2023-05-21T13:38:45.317Z,100274.78
2023-05-21T13:40:11.171Z,100270.84
2023-05-21T13:41:32.279Z,100265.22
2023-05-21T13:42:56.105Z,100261.13
2023-05-21T13:44:21.583Z,100272.63
2023-05-21T13:45:44.587Z,100264.31
2023-05-21T13:47:06.086Z,100261.84
2023-05-21T13:48:30.822Z,100263.78
2023-05-21T13:49:51.765Z,100261.03
2023-05-21T13:51:19.887Z,100245.63
2023-05-21T13:52:48.499Z,100262.53
2023-05-21T13:54:14.284Z,100264.78
2023-05-21T13:55:39.107Z,100269.00
2023-05-21T13:57:01.302Z,100261.06
2023-05-21T13:58:25.174Z,100265.25
2023-05-21T13:59:47.531Z,100268.09
2023-05-21T14:01:10.472Z,100273.13
2023-05-21T14:02:32.724Z,100277.31
2023-05-21T14:03:55.439Z,100273.22
2023-05-21T14:05:17.936Z,100268.84
2023-05-21T14:06:41.302Z,100258.38
2023-05-21T14:08:03.867Z,100258.13
2023-05-21T14:09:28.054Z,100263.75
2023-05-21T14:10:52.549Z,100255.53
2023-05-21T14:12:17.518Z,100264.22
2023-05-21T14:13:41.481Z,100258.78
2023-05-21T14:15:03.503Z,100259.63
2023-05-21T14:16:27.838Z,100264.09
2023-05-21T14:17:50.402Z,100263.56
2023-05-21T14:19:12.329Z,100263.34
2023-05-21T14:20:34.396Z,100250.94
2023-05-21T14:21:56.739Z,100257.06
2023-05-21T14:23:18.986Z,100254.06
2023-05-21T14:24:40.975Z,100260.72
2023-05-21T14:26:03.696Z,100259.06
2023-05-21T14:27:25.771Z,100263.78
2023-05-21T14:28:49.464Z,100258.25
2023-05-21T14:30:12.699Z,100258.84
2023-05-21T14:31:34.853Z,100259.66
2023-05-21T14:32:58.055Z,100259.66
2023-05-21T14:34:20.298Z,100261.09
2023-05-21T14:35:44.310Z,100260.56
2023-05-21T14:37:06.996Z,100257.78
2023-05-21T14:38:29.342Z,100258.69
2023-05-21T14:39:51.379Z,100261.44
2023-05-21T14:41:13.556Z,100263.72
2023-05-21T14:42:37.895Z,100254.88
2023-05-21T14:44:01.849Z,100255.16
2023-05-21T14:45:24.298Z,100255.16
2023-05-21T14:46:46.208Z,100261.56
2023-05-21T14:48:09.630Z,100256.63
2023-05-21T14:49:32.180Z,100252.81
2023-05-21T14:50:55.091Z,100251.75
2023-05-21T14:52:17.086Z,100259.00
2023-05-21T14:53:39.556Z,100249.91
2023-05-21T14:55:01.565Z,100257.94
2023-05-21T14:56:26.395Z,100256.31
2023-05-21T14:57:48.640Z,100256.09
2023-05-21T14:59:13.104Z,100249.72
2023-05-21T15:00:36.302Z,100251.94
2023-05-21T15:01:58.948Z,100255.56
2023-05-21T15:03:21.049Z,100250.84
2023-05-21T15:04:42.157Z,100244.78
2023-05-21T15:06:06.868Z,100236.47
2023-05-21T15:07:29.592Z,100241.53
2023-05-21T15:08:51.817Z,100243.44
2023-05-21T15:10:15.330Z,100248.13
2023-05-21T15:11:44.025Z,100248.97
2023-05-21T15:13:06.059Z,100250.59
2023-05-21T15:14:28.537Z,100237.91
2023-05-21T15:15:53.577Z,100244.25
2023-05-21T15:17:15.849Z,100241.19
2023-05-21T15:18:42.429Z,100229.59
2023-05-21T15:20:07.438Z,100242.56
2023-05-21T15:21:30.076Z,100232.84
2023-05-21T15:24:27.609Z,100232.78
2023-05-21T15:25:52.159Z,100242.97
2023-05-21T15:27:14.282Z,100247.94
2023-05-21T15:28:36.644Z,100239.88
2023-05-21T15:30:05.965Z,100234.63
2023-05-21T15:31:28.579Z,100235.16
2023-05-21T15:32:52.807Z,100241.16
2023-05-21T15:34:15.228Z,100233.38
2023-05-21T15:35:40.328Z,100244.16
2023-05-21T15:37:02.687Z,100234.97
2023-05-21T15:38:23.889Z,100239.91
2023-05-21T15:39:47.074Z,100236.03
2023-05-21T15:41:11.450Z,100240.66
2023-05-21T15:42:34.247Z,100246.72
2023-05-21T15:43:56.577Z,100234.53
2023-05-21T15:45:21.416Z,100245.84
2023-05-21T15:46:46.006Z,100240.81
2023-05-21T15:48:10.079Z,100237.47
2023-05-21T15:49:32.289Z,100236.34
2023-05-21T15:50:54.569Z,100242.72
2023-05-21T15:52:17.257Z,100226.63
2023-05-21T15:53:41.837Z,100232.91
2023-05-21T15:55:04.184Z,100234.88
2023-05-21T15:56:26.814Z,100237.84
2023-05-21T15:57:49.212Z,100233.66
2023-05-21T15:59:11.394Z,100229.25
2023-05-21T16:00:35.501Z,100228.66
2023-05-21T16:01:57.859Z,100235.28
2023-05-21T16:03:20.259Z,100228.59
2023-05-21T16:04:45.676Z,100231.94
2023-05-21T16:06:08.261Z,100229.47
2023-05-21T16:07:31.138Z,100226.47
2023-05-21T16:08:54.151Z,100236.38
2023-05-21T16:10:16.465Z,100234.47
2023-05-21T16:11:57.224Z,100240.00
2023-05-21T16:13:19.477Z,100227.91
2023-05-21T16:14:42.083Z,100239.56
2023-05-21T16:16:05.773Z,100235.81
2023-05-21T16:17:30.742Z,100240.47
2023-05-21T16:18:53.212Z,100222.06
2023-05-21T16:20:14.641Z,100224.03
2023-05-21T16:21:50.649Z,100239.09
2023-05-21T16:23:13.368Z,100231.91
2023-05-21T16:24:36.031Z,100236.66
2023-05-21T16:25:57.318Z,100233.38
2023-05-21T16:27:19.657Z,100217.75
2023-05-21T16:28:48.481Z,100229.66
2023-05-21T16:30:14.243Z,100219.00
2023-05-21T16:31:40.741Z,100232.59
2023-05-21T16:33:03.099Z,100233.25
2023-05-21T16:34:24.616Z,100233.31
2023-05-21T16:35:47.116Z,100220.41
2023-05-21T16:37:10.123Z,100225.16
2023-05-21T16:38:32.958Z,100217.22
2023-05-21T16:40:02.339Z,100215.63
2023-05-21T16:41:26.492Z,100223.13
2023-05-21T16:42:47.467Z,100223.47
2023-05-21T16:44:09.832Z,100226.53
2023-05-21T16:45:40.758Z,100213.06
2023-05-21T16:47:05.200Z,100226.09
2023-05-21T16:48:26.447Z,100234.44
2023-05-21T16:49:48.754Z,100228.72
2023-05-21T16:51:09.944Z,100233.69
2023-05-21T16:52:31.909Z,100223.78
2023-05-21T16:54:02.505Z,100223.59
2023-05-21T16:55:25.186Z,100227.75
2023-05-21T16:56:46.384Z,100229.69
2023-05-21T16:58:10.858Z,100232.78
2023-05-21T16:59:33.030Z,100232.81
2023-05-21T17:00:55.463Z,100236.16